createdAt,value
2022-08-17T00:00:43.645Z,35.40
2022-08-17T00:03:20.779Z,36.47
2022-08-17T00:05:55.635Z,36.08
2022-08-17T00:08:30.754Z,36.90
2022-08-17T00:10:59.711Z,36.13
2022-08-17T00:13:27.727Z,36.20
2022-08-17T00:16:08.830Z,37.22
2022-08-17T00:19:01.979Z,36.40
2022-08-17T00:21:25.588Z,36.13
2022-08-17T00:23:54.883Z,36.90
2022-08-17T00:26:44.855Z,35.65
2022-08-17T00:29:19.385Z,34.85
2022-08-17T00:31:48.044Z,36.42
2022-08-17T00:34:16.444Z,36.00
2022-08-17T00:36:44.158Z,35.15
2022-08-17T00:39:11.913Z,34.70
2022-08-17T00:41:42.170Z,34.38
2022-08-17T00:44:12.288Z,34.67
2022-08-17T00:46:44.043Z,35.70
2022-08-17T00:49:14.390Z,33.42
2022-08-17T00:51:44.642Z,32.22
2022-08-17T00:54:27.210Z,32.35
2022-08-17T00:57:00.770Z,32.17
2022-08-17T00:59:40.016Z,32.88
2022-08-17T01:02:12.621Z,31.58
2022-08-17T01:04:42.476Z,32.33
2022-08-17T01:07:12.197Z,31.88
2022-08-17T01:09:41.515Z,32.53
2022-08-17T01:12:10.815Z,32.60
2022-08-17T01:14:39.847Z,33.45
2022-08-17T01:17:09.335Z,31.92
2022-08-17T01:19:42.080Z,32.03
2022-08-17T01:22:12.938Z,33.58
2022-08-17T01:24:57.620Z,33.88
2022-08-17T01:27:27.445Z,34.03
2022-08-17T01:30:00.265Z,33.67
2022-08-17T01:32:30.486Z,33.35
2022-08-17T01:34:58.974Z,33.17
2022-08-17T01:37:35.375Z,33.50
2022-08-17T01:40:13.077Z,35.55
2022-08-17T01:43:11.433Z,34.20
2022-08-17T01:45:46.347Z,34.88
2022-08-17T01:48:14.495Z,34.97
2022-08-17T01:50:44.582Z,35.03
2022-08-17T01:53:36.837Z,36.80
2022-08-17T01:56:12.175Z,35.92
2022-08-17T01:58:42.944Z,35.50
2022-08-17T02:01:14.268Z,35.42
2022-08-17T02:03:56.304Z,33.67
2022-08-17T02:06:47.115Z,34.13
2022-08-17T02:09:29.914Z,34.05
2022-08-17T02:12:47.437Z,33.10
2022-08-17T02:14:48.306Z,32.25
2022-08-17T02:17:16.518Z,31.52
2022-08-17T02:19:44.300Z,30.52
2022-08-17T02:22:12.271Z,30.90
2022-08-17T02:24:58.256Z,30.85
2022-08-17T02:27:28.663Z,31.25
2022-08-17T02:29:57.669Z,30.83
2022-08-17T02:32:27.871Z,31.60
2022-08-17T02:34:58.137Z,31.55
2022-08-17T02:37:27.943Z,31.85
2022-08-17T02:39:59.588Z,32.88
2022-08-17T02:42:34.137Z,32.30
2022-08-17T02:45:05.242Z,31.83
2022-08-17T02:47:34.046Z,32.92
2022-08-17T02:50:02.115Z,33.08
2022-08-17T02:52:42.797Z,33.20
2022-08-17T02:55:20.966Z,32.92
2022-08-17T02:57:49.399Z,32.83
2022-08-17T03:00:28.930Z,32.85
2022-08-17T03:02:57.979Z,33.20
2022-08-17T03:05:30.856Z,32.50
2022-08-17T03:07:58.769Z,31.17
2022-08-17T03:10:27.278Z,33.45
2022-08-17T03:12:55.813Z,31.95
2022-08-17T03:15:30.519Z,31.85
2022-08-17T03:18:00.385Z,31.55
2022-08-17T03:20:30.700Z,29.35
2022-08-17T03:23:03.004Z,29.70
2022-08-17T03:25:38.028Z,31.10
2022-08-17T03:28:07.455Z,30.45
2022-08-17T03:30:36.876Z,30.48
2022-08-17T03:33:07.213Z,30.10
2022-08-17T03:35:37.732Z,31.08
2022-08-17T03:38:07.497Z,31.38
2022-08-17T03:40:58.908Z,31.40
2022-08-17T03:43:24.063Z,31.77
2022-08-17T03:46:33.899Z,31.25
2022-08-17T03:49:17.777Z,29.50
2022-08-17T03:52:04.227Z,30.92
2022-08-17T03:54:51.009Z,30.52
2022-08-17T03:57:19.353Z,31.40
2022-08-17T03:59:47.891Z,31.80
2022-08-17T04:02:33.248Z,31.00
2022-08-17T04:05:01.868Z,33.30
2022-08-17T04:07:31.047Z,33.60
2022-08-17T04:09:59.562Z,31.88
2022-08-17T04:12:31.217Z,31.17
2022-08-17T04:14:59.543Z,31.98
2022-08-17T04:17:29.394Z,33.15
2022-08-17T04:19:58.102Z,31.30
2022-08-17T04:22:31.454Z,31.90
2022-08-17T04:25:09.928Z,32.85
2022-08-17T04:27:37.816Z,30.92
2022-08-17T04:30:07.495Z,32.55
2022-08-17T04:33:19.197Z,30.92
2022-08-17T04:35:47.732Z,30.73
2022-08-17T04:38:18.792Z,30.92
2022-08-17T04:41:05.939Z,29.85
2022-08-17T04:43:35.270Z,27.98
2022-08-17T04:46:09.098Z,26.92
2022-08-17T04:48:42.832Z,27.38
2022-08-17T04:51:19.963Z,24.95
2022-08-17T04:53:54.894Z,24.85
2022-08-17T04:56:25.969Z,25.65
2022-08-17T04:58:56.644Z,25.00
2022-08-17T05:01:28.119Z,23.38
2022-08-17T05:04:02.357Z,22.90
2022-08-17T05:06:50.332Z,23.40
2022-08-17T05:09:19.075Z,22.85
2022-08-17T05:11:47.057Z,22.80
2022-08-17T05:14:15.145Z,22.42
2022-08-17T05:16:43.178Z,22.17
2022-08-17T05:19:11.008Z,22.75
2022-08-17T05:21:39.130Z,21.10
2022-08-17T05:24:07.192Z,20.60
2022-08-17T05:26:55.105Z,20.08
2022-08-17T05:29:23.247Z,19.88
2022-08-17T05:32:38.322Z,18.45
2022-08-17T05:35:00.533Z,17.85
2022-08-17T05:37:29.156Z,17.52
2022-08-17T05:39:57.231Z,18.05
2022-08-17T05:42:25.218Z,18.17
2022-08-17T05:44:56.681Z,17.42
2022-08-17T05:47:26.927Z,17.25
2022-08-17T05:49:55.624Z,16.65
2022-08-17T05:52:44.853Z,16.58
2022-08-17T05:55:50.756Z,16.67
2022-08-17T05:58:39.006Z,16.30
2022-08-17T06:01:20.955Z,15.30
2022-08-17T06:03:48.810Z,15.13
2022-08-17T06:06:40.719Z,14.50
2022-08-17T06:09:33.022Z,14.90
2022-08-17T06:12:07.763Z,14.57
2022-08-17T06:15:03.906Z,14.38
2022-08-17T06:17:33.204Z,13.45
2022-08-17T06:20:14.767Z,15.13
2022-08-17T06:22:50.691Z,14.15
2022-08-17T06:25:33.788Z,13.85
2022-08-17T06:28:14.770Z,14.52
2022-08-17T06:30:59.743Z,13.07
2022-08-17T06:33:38.477Z,12.48
2022-08-17T06:36:15.943Z,11.77
2022-08-17T06:38:57.327Z,12.35
2022-08-17T06:41:45.703Z,12.35
2022-08-17T06:44:50.249Z,10.00
2022-08-17T06:47:28.766Z,10.88
2022-08-17T06:50:22.156Z,10.63
2022-08-17T06:53:01.642Z,10.00
2022-08-17T06:55:38.422Z,9.75
2022-08-17T06:58:16.492Z,9.18
2022-08-17T07:00:47.732Z,9.70
2022-08-17T07:03:47.968Z,9.40
2022-08-17T07:06:19.954Z,9.00
2022-08-17T07:08:56.589Z,9.48
2022-08-17T07:11:48.163Z,9.35
2022-08-17T07:14:24.624Z,8.30
2022-08-17T07:16:56.244Z,8.18
2022-08-17T07:19:31.869Z,8.70
2022-08-17T07:22:11.470Z,8.38
2022-08-17T07:24:45.231Z,8.43
2022-08-17T07:30:00.916Z,7.80
2022-08-17T07:32:46.434Z,7.78
2022-08-17T07:35:37.942Z,8.13
2022-08-17T07:38:26.918Z,7.47
2022-08-17T07:40:58.122Z,7.95
2022-08-17T07:43:39.370Z,8.05
2022-08-17T07:46:35.335Z,7.75
2022-08-17T07:49:03.667Z,7.70
2022-08-17T07:51:39.328Z,7.45
2022-08-17T07:54:16.770Z,7.72
2022-08-17T07:57:13.349Z,8.00
2022-08-17T08:00:16.132Z,7.78
2022-08-17T08:02:47.802Z,7.70
2022-08-17T08:05:49.276Z,7.82
2022-08-17T08:08:25.487Z,8.02
2022-08-17T08:11:27.978Z,8.70
2022-08-17T08:13:58.522Z,8.63
2022-08-17T08:16:29.817Z,8.70
2022-08-17T08:19:00.534Z,8.40
2022-08-17T08:21:42.204Z,8.85
2022-08-17T08:24:10.945Z,7.90
2022-08-17T08:26:50.202Z,7.70
2022-08-17T08:29:46.279Z,7.43
2022-08-17T08:32:42.914Z,7.53
2022-08-17T08:35:26.827Z,8.00
2022-08-17T08:38:20.194Z,8.35
2022-08-17T08:41:25.494Z,7.72
2022-08-17T08:44:05.031Z,8.25
2022-08-17T08:46:58.654Z,8.68
2022-08-17T08:52:48.401Z,8.55
2022-08-17T08:55:34.470Z,8.48
2022-08-17T08:58:32.289Z,8.88
2022-08-17T09:01:25.473Z,8.73
2022-08-17T09:04:25.824Z,9.48
2022-08-17T09:07:15.548Z,9.63
2022-08-17T09:09:59.206Z,9.60
2022-08-17T09:12:44.401Z,9.00
2022-08-17T09:15:22.166Z,9.07
2022-08-17T09:19:01.090Z,8.23
2022-08-17T09:21:34.817Z,8.60
2022-08-17T09:24:12.829Z,8.18
2022-08-17T09:26:51.305Z,8.65
2022-08-17T09:29:24.442Z,8.50
2022-08-17T09:32:03.740Z,8.02
2022-08-17T09:34:48.355Z,8.07
2022-08-17T09:37:46.867Z,8.00
2022-08-17T09:40:44.090Z,8.20
2022-08-17T09:43:41.203Z,8.75
2022-08-17T09:46:34.297Z,8.43
2022-08-17T09:49:23.159Z,8.68
2022-08-17T09:52:03.310Z,8.70
2022-08-17T09:54:38.977Z,8.32
2022-08-17T09:57:30.184Z,8.57
2022-08-17T10:00:16.782Z,8.20
2022-08-17T10:02:56.961Z,9.10
2022-08-17T10:06:21.623Z,8.65
2022-08-17T10:09:13.689Z,8.30
2022-08-17T10:12:23.025Z,8.68
2022-08-17T10:15:09.838Z,9.25
2022-08-17T10:17:46.953Z,9.45
2022-08-17T10:20:30.905Z,9.00
2022-08-17T10:23:46.648Z,9.27
2022-08-17T10:26:25.035Z,8.60
2022-08-17T10:29:06.787Z,9.75
2022-08-17T10:31:42.652Z,8.95
2022-08-17T10:34:25.374Z,9.52
2022-08-17T10:37:15.140Z,8.90
2022-08-17T10:39:54.725Z,8.68
2022-08-17T10:42:32.799Z,9.25
2022-08-17T10:45:28.172Z,8.43
2022-08-17T10:48:06.245Z,8.50
2022-08-17T10:50:57.744Z,8.35
2022-08-17T10:53:40.764Z,8.93
2022-08-17T10:56:14.695Z,7.82
2022-08-17T10:58:59.195Z,8.90
2022-08-17T11:01:32.319Z,8.50
2022-08-17T11:04:17.679Z,8.52
2022-08-17T11:07:41.584Z,9.77
2022-08-17T11:10:54.804Z,9.80
2022-08-17T11:14:06.890Z,9.20
2022-08-17T11:16:53.743Z,9.38
2022-08-17T11:19:39.468Z,8.40
2022-08-17T11:22:29.971Z,9.18
2022-08-17T11:25:20.361Z,9.05
2022-08-17T11:28:04.375Z,8.43
2022-08-17T11:30:47.045Z,8.80
2022-08-17T11:33:36.855Z,8.77
2022-08-17T11:36:14.540Z,8.63
2022-08-17T11:39:13.256Z,8.63
2022-08-17T11:42:05.916Z,8.40
2022-08-17T11:44:52.796Z,8.73
2022-08-17T11:48:27.983Z,8.90
2022-08-17T11:51:18.027Z,9.30
2022-08-17T11:53:46.069Z,9.13
2022-08-17T11:56:34.787Z,8.75
2022-08-17T11:59:23.149Z,9.10
2022-08-17T12:01:55.840Z,8.73
2022-08-17T12:04:30.603Z,9.05
2022-08-17T12:07:17.742Z,8.98
2022-08-17T12:09:50.960Z,8.95
2022-08-17T12:12:33.011Z,8.63
2022-08-17T12:15:10.497Z,9.55
2022-08-17T12:17:42.647Z,9.05
2022-08-17T12:20:23.482Z,8.60
2022-08-17T12:22:56.589Z,9.32
2022-08-17T12:25:51.450Z,8.87
2022-08-17T12:28:33.268Z,9.23
2022-08-17T12:31:07.273Z,8.63
2022-08-17T12:33:37.415Z,8.68
2022-08-17T12:36:08.703Z,8.43
2022-08-17T12:38:38.135Z,8.93
2022-08-17T12:41:26.598Z,8.05
2022-08-17T12:44:23.194Z,9.02
2022-08-17T12:46:59.760Z,9.02
2022-08-17T12:49:34.249Z,8.38
2022-08-17T12:52:23.681Z,8.50
2022-08-17T12:55:25.582Z,8.48
2022-08-17T12:58:01.846Z,9.35
2022-08-17T13:00:34.783Z,9.32
2022-08-17T13:03:13.225Z,8.98
2022-08-17T13:06:03.251Z,9.07
2022-08-17T13:08:36.646Z,8.77
2022-08-17T13:11:29.511Z,8.30
2022-08-17T13:14:08.347Z,8.02
2022-08-17T13:16:36.394Z,8.80
2022-08-17T13:19:12.818Z,9.07
2022-08-17T13:22:04.343Z,8.93
2022-08-17T13:24:38.572Z,9.02
2022-08-17T13:27:11.819Z,9.20
2022-08-17T13:29:45.343Z,9.43
2022-08-17T13:32:43.967Z,8.38
2022-08-17T13:35:39.839Z,8.85
2022-08-17T13:38:15.470Z,8.60
2022-08-17T13:40:53.163Z,8.25
2022-08-17T13:43:45.061Z,9.15
2022-08-17T13:46:19.708Z,8.73
2022-08-17T13:49:09.529Z,9.68
2022-08-17T13:51:44.640Z,8.27
2022-08-17T13:54:40.099Z,8.07
2022-08-17T13:57:23.285Z,9.68
2022-08-17T14:00:05.958Z,9.02
2022-08-17T14:02:35.936Z,8.98
2022-08-17T14:05:06.388Z,9.07
2022-08-17T14:07:39.928Z,9.23
2022-08-17T14:10:17.438Z,9.45
2022-08-17T14:12:45.819Z,9.93
2022-08-17T14:15:16.448Z,10.10
2022-08-17T14:17:44.192Z,9.23
2022-08-17T14:20:13.441Z,9.38
2022-08-17T14:22:46.370Z,9.57
2022-08-17T14:25:19.607Z,9.35
2022-08-17T14:27:53.564Z,9.27
2022-08-17T14:30:29.889Z,10.60
2022-08-17T14:32:58.784Z,10.05
2022-08-17T14:35:28.855Z,10.35
2022-08-17T14:37:57.189Z,9.63
2022-08-17T14:40:25.806Z,9.57
2022-08-17T14:42:55.483Z,10.07
2022-08-17T14:45:30.336Z,9.75
2022-08-17T14:48:07.721Z,9.52
2022-08-17T14:50:38.834Z,9.27
2022-08-17T14:53:08.774Z,9.20
2022-08-17T14:55:39.942Z,9.60
2022-08-17T14:58:09.105Z,9.55
2022-08-17T15:00:37.832Z,9.90
2022-08-17T15:03:05.638Z,9.60
2022-08-17T15:05:36.611Z,9.98
2022-08-17T15:08:05.896Z,9.73
2022-08-17T15:10:35.505Z,8.80
2022-08-17T15:13:03.334Z,9.32
2022-08-17T15:15:31.531Z,8.73
2022-08-17T15:18:00.063Z,8.85
2022-08-17T15:20:29.831Z,8.77
2022-08-17T15:22:59.056Z,9.18
2022-08-17T15:25:29.411Z,9.32
2022-08-17T15:27:57.269Z,9.93
2022-08-17T15:30:26.555Z,10.40
2022-08-17T15:32:57.428Z,10.88
2022-08-17T15:35:29.081Z,11.13
2022-08-17T15:38:07.845Z,11.40
2022-08-17T15:40:45.139Z,11.98
2022-08-17T15:43:28.222Z,10.85
2022-08-17T15:46:12.564Z,11.82
2022-08-17T15:48:42.444Z,12.25
2022-08-17T15:51:23.383Z,12.23
2022-08-17T15:53:57.214Z,12.30
2022-08-17T15:56:26.126Z,12.38
2022-08-17T15:58:55.228Z,12.27
2022-08-17T16:02:14.269Z,12.55
2022-08-17T16:04:26.958Z,13.20
2022-08-17T16:07:00.028Z,13.68
2022-08-17T16:09:28.553Z,13.05
2022-08-17T16:11:56.643Z,12.45
2022-08-17T16:14:32.423Z,13.15
2022-08-17T16:17:04.596Z,13.05
2022-08-17T16:19:34.279Z,13.48
2022-08-17T16:22:02.596Z,13.30
2022-08-17T16:24:31.370Z,12.23
2022-08-17T16:26:59.123Z,13.07
2022-08-17T16:29:26.815Z,12.65
2022-08-17T16:31:54.934Z,12.35
2022-08-17T16:34:22.705Z,13.02
2022-08-17T16:36:55.167Z,12.23
2022-08-17T16:39:27.177Z,12.82
2022-08-17T16:41:56.096Z,12.38
2022-08-17T16:44:25.839Z,12.98
2022-08-17T16:46:53.776Z,13.55
2022-08-17T16:49:31.539Z,12.57
2022-08-17T16:52:10.399Z,12.80
2022-08-17T16:54:43.832Z,13.80
2022-08-17T16:57:13.355Z,13.55
2022-08-17T16:59:44.928Z,13.05
2022-08-17T17:02:23.621Z,13.35
2022-08-17T17:05:16.062Z,13.90
2022-08-17T17:08:03.345Z,13.95
2022-08-17T17:10:38.745Z,13.48
2022-08-17T17:13:17.108Z,14.48
2022-08-17T17:15:44.788Z,14.10
2022-08-17T17:18:14.840Z,15.07
2022-08-17T17:20:54.806Z,15.43
2022-08-17T17:23:44.821Z,14.77
2022-08-17T17:26:49.290Z,14.95
2022-08-17T17:29:26.744Z,15.43
2022-08-17T17:32:17.283Z,15.85
2022-08-17T17:34:50.911Z,15.68
2022-08-17T17:37:26.159Z,15.70
2022-08-17T17:39:59.841Z,16.20
2022-08-17T17:42:31.496Z,18.00
2022-08-17T17:45:08.715Z,17.52
2022-08-17T17:47:36.656Z,17.77
2022-08-17T17:50:06.425Z,18.00
2022-08-17T17:52:47.415Z,16.90
2022-08-17T17:55:43.406Z,18.52
2022-08-17T17:58:32.044Z,18.50
2022-08-17T18:01:24.578Z,17.90
2022-08-17T18:04:20.634Z,18.40
2022-08-17T18:06:51.965Z,18.38
2022-08-17T18:09:51.937Z,19.55
2022-08-17T18:12:37.228Z,19.52
2022-08-17T18:15:13.727Z,20.27
2022-08-17T18:18:02.886Z,20.13
2022-08-17T18:20:43.209Z,20.88
2022-08-17T18:23:23.165Z,21.73
2022-08-17T18:25:56.612Z,21.20
2022-08-17T18:28:26.780Z,20.83
2022-08-17T18:31:20.077Z,21.23
2022-08-17T18:34:45.518Z,21.75
2022-08-17T18:37:05.198Z,23.48
2022-08-17T18:39:33.821Z,22.02
2022-08-17T18:42:03.860Z,23.38
2022-08-17T18:44:43.966Z,22.77
2022-08-17T18:47:14.647Z,23.90
2022-08-17T18:50:10.824Z,23.75
2022-08-17T18:52:38.747Z,24.10
2022-08-17T18:55:08.482Z,25.23
2022-08-17T18:58:07.662Z,25.40
2022-08-17T19:00:38.298Z,27.13
2022-08-17T19:03:18.045Z,26.85
2022-08-17T19:05:52.369Z,27.88
2022-08-17T19:08:20.239Z,26.67
2022-08-17T19:10:58.415Z,27.52
2022-08-17T19:13:35.436Z,28.05
2022-08-17T19:16:17.716Z,28.02
2022-08-17T19:18:53.833Z,27.80
2022-08-17T19:21:34.441Z,28.20
2022-08-17T19:24:11.714Z,27.05
2022-08-17T19:26:55.457Z,27.13
2022-08-17T19:29:51.805Z,27.80
2022-08-17T19:32:26.287Z,27.20
2022-08-17T19:34:55.105Z,27.55
2022-08-17T19:37:44.742Z,28.15
2022-08-17T19:43:50.487Z,26.63
2022-08-17T19:46:26.170Z,27.67
2022-08-17T19:49:08.543Z,28.75
2022-08-17T19:52:22.439Z,27.65
2022-08-17T19:55:31.554Z,28.35
2022-08-17T19:58:19.175Z,28.38
2022-08-17T20:00:53.497Z,28.75
2022-08-17T20:03:35.075Z,29.33
2022-08-17T20:06:13.029Z,29.40
2022-08-17T20:09:14.650Z,29.95
2022-08-17T20:11:49.227Z,29.70
2022-08-17T20:14:36.289Z,29.15
2022-08-17T20:17:05.847Z,31.67
2022-08-17T20:19:53.334Z,30.17
2022-08-17T20:22:52.486Z,31.40
2022-08-17T20:25:32.420Z,31.80
2022-08-17T20:28:27.877Z,30.98
2022-08-17T20:30:56.275Z,31.88
2022-08-17T20:33:25.860Z,30.45
2022-08-17T20:36:22.717Z,31.70
2022-08-17T20:38:57.347Z,31.23
2022-08-17T20:41:27.933Z,32.13
2022-08-17T20:43:59.231Z,33.80
2022-08-17T20:46:29.773Z,33.08
2022-08-17T20:49:24.330Z,32.53
2022-08-17T20:52:02.420Z,33.80
2022-08-17T20:54:42.796Z,33.97
2022-08-17T20:57:31.412Z,33.55
2022-08-17T21:00:34.137Z,35.20
2022-08-17T21:03:50.612Z,35.65
2022-08-17T21:06:22.567Z,35.38
2022-08-17T21:08:55.457Z,33.88
2022-08-17T21:12:02.640Z,33.33
2022-08-17T21:14:22.057Z,33.20
2022-08-17T21:17:12.160Z,32.72
2022-08-17T21:20:10.327Z,34.05
2022-08-17T21:23:20.429Z,32.25
2022-08-17T21:25:58.347Z,33.20
2022-08-17T21:29:00.819Z,33.10
2022-08-17T21:31:29.246Z,32.10
2022-08-17T21:34:16.232Z,33.17
2022-08-17T21:36:45.835Z,32.30
2022-08-17T21:39:16.428Z,30.88
2022-08-17T21:41:55.749Z,32.20
2022-08-17T21:44:35.177Z,31.17
2022-08-17T21:47:32.356Z,33.00
2022-08-17T21:50:17.642Z,32.65
2022-08-17T21:52:46.017Z,32.58
2022-08-17T21:55:28.324Z,32.38
2022-08-17T21:58:13.955Z,32.35
2022-08-17T22:00:44.734Z,33.10
2022-08-17T22:03:25.951Z,35.38
2022-08-17T22:05:53.968Z,32.25
2022-08-17T22:08:24.323Z,31.40
2022-08-17T22:11:00.151Z,32.30
2022-08-17T22:13:29.721Z,32.28
2022-08-17T22:16:15.323Z,31.48
2022-08-17T22:18:58.985Z,31.90
2022-08-17T22:21:27.473Z,31.80
2022-08-17T22:24:18.011Z,30.10
2022-08-17T22:27:05.087Z,29.80
2022-08-17T22:29:58.469Z,31.90
2022-08-17T22:32:41.487Z,32.40
2022-08-17T22:35:34.708Z,31.92
2022-08-17T22:38:21.195Z,32.25
2022-08-17T22:41:34.693Z,32.65
2022-08-17T22:44:17.752Z,33.25
2022-08-17T22:46:55.358Z,34.10
2022-08-17T22:49:53.904Z,32.95
2022-08-17T22:52:33.430Z,36.33
2022-08-17T22:55:40.970Z,36.05
2022-08-17T22:58:33.961Z,35.60
2022-08-17T23:01:23.597Z,37.20
2022-08-17T23:04:06.321Z,35.88
2022-08-17T23:06:37.901Z,36.28
2022-08-17T23:09:06.967Z,38.17
2022-08-17T23:11:58.675Z,37.05
2022-08-17T23:14:31.730Z,37.25
2022-08-17T23:17:00.909Z,37.30
2022-08-17T23:19:32.068Z,37.17
2022-08-17T23:22:01.845Z,38.78
2022-08-17T23:24:33.135Z,39.47
2022-08-17T23:27:00.793Z,38.08
2022-08-17T23:29:29.618Z,39.38
2022-08-17T23:32:00.102Z,38.80
2022-08-17T23:34:29.007Z,37.67
2022-08-17T23:36:57.425Z,38.03
2022-08-17T23:39:27.966Z,38.97
2022-08-17T23:42:01.026Z,39.33
2022-08-17T23:44:31.033Z,38.67
2022-08-17T23:46:58.822Z,37.95
2022-08-17T23:49:26.589Z,41.80
2022-08-17T23:51:55.242Z,42.00
2022-08-17T23:54:46.508Z,40.30
2022-08-17T23:57:19.458Z,40.95
2022-08-17T23:59:47.269Z,40.05
